createdAt,value
2023-04-22T00:03:18.033Z,1.7
2023-04-22T00:09:38.162Z,1.7
2023-04-22T00:16:01.084Z,2.9
2023-04-22T00:22:20.953Z,2.9
2023-04-22T00:28:43.982Z,23.3
2023-04-22T00:35:04.050Z,23.3
2023-04-22T00:41:26.965Z,1.6
2023-04-22T00:47:47.087Z,1.6
2023-04-22T00:54:09.942Z,2.7
2023-04-22T01:00:30.050Z,2.7
2023-04-22T01:06:53.307Z,1.6
2023-04-22T01:13:13.036Z,1.6
2023-04-22T01:19:36.019Z,2.9
2023-04-22T01:25:56.061Z,2.9
2023-04-22T01:32:19.028Z,2.5
2023-04-22T01:38:39.036Z,2.5
2023-04-22T01:45:01.901Z,3
2023-04-22T01:51:22.033Z,3
2023-04-22T01:57:44.930Z,3.4
2023-04-22T02:04:05.037Z,3.4
2023-04-22T02:10:27.965Z,6.1
2023-04-22T02:16:48.034Z,6.1
2023-04-22T02:23:10.884Z,4.2
2023-04-22T02:29:30.987Z,4.2
2023-04-22T02:35:53.936Z,2.9
2023-04-22T02:42:14.028Z,2.9
2023-04-22T02:48:36.991Z,4.1
2023-04-22T02:54:56.969Z,4.1
2023-04-22T03:01:19.952Z,3.4
2023-04-22T03:07:39.994Z,3.4
2023-04-22T03:14:02.912Z,1.6
2023-04-22T03:37:08.874Z,1.9
2023-04-22T03:43:28.895Z,1.9
2023-04-22T03:49:51.994Z,5.5
2023-04-22T03:56:11.910Z,5.5
2023-04-22T04:02:35.027Z,2.3
2023-04-22T04:08:54.876Z,2.3
2023-04-22T04:15:17.928Z,6
2023-04-22T04:21:38.722Z,6
2023-04-22T04:28:01.915Z,2.1
2023-04-22T04:34:21.979Z,2.1
2023-04-22T04:40:44.955Z,3.3
2023-04-22T04:47:04.953Z,3.3
2023-04-22T04:53:28.003Z,3
2023-04-22T04:59:47.912Z,3
2023-04-22T05:06:10.959Z,1.4
2023-04-22T05:12:31.055Z,1.4
2023-04-22T05:18:53.977Z,3.4
2023-04-22T05:25:13.933Z,3.4
2023-04-22T05:31:36.957Z,2.1
2023-04-22T05:37:56.919Z,2.1
2023-04-22T05:44:19.994Z,3.7
2023-04-22T05:50:39.945Z,3.7
2023-04-22T05:57:02.983Z,1.3
2023-04-22T06:03:23.021Z,1.3
2023-04-22T06:09:45.956Z,2.1
2023-04-22T06:16:05.979Z,2.1
2023-04-22T06:22:28.907Z,1.8
2023-04-22T06:28:49.026Z,1.8
2023-04-22T06:35:11.925Z,7.1
2023-04-22T06:41:31.911Z,7.1
2023-04-22T06:47:55.037Z,1.1
2023-04-22T06:54:14.896Z,1.1
2023-04-22T07:00:37.986Z,0.3
2023-04-22T07:06:57.977Z,0.3
2023-04-22T07:13:20.916Z,0.8
2023-04-22T07:19:41.677Z,0.8
2023-04-22T07:26:03.944Z,1.4
2023-04-22T07:32:23.928Z,1.4
2023-04-22T07:38:46.942Z,1.8
2023-04-22T07:45:07.198Z,1.8
2023-04-22T07:51:29.999Z,1
2023-04-22T07:57:49.914Z,1
2023-04-22T08:04:13.016Z,1.2
2023-04-22T08:10:32.952Z,1.2
2023-04-22T08:16:55.907Z,0.6
2023-04-22T08:23:15.967Z,0.6
2023-04-22T08:29:39.218Z,0.4
2023-04-22T08:35:58.979Z,0.4
2023-04-22T08:42:21.977Z,0.8
2023-04-22T08:48:41.885Z,0.8
2023-04-22T09:12:40.876Z,2.9
2023-04-22T09:19:03.917Z,2.9
2023-04-22T09:25:23.897Z,2.9
2023-04-22T09:31:47.039Z,1.1
2023-04-22T09:38:06.926Z,1.1
2023-04-22T09:44:29.950Z,0.7
2023-04-22T09:50:49.936Z,0.7
2023-04-22T09:57:12.937Z,0.6
2023-04-22T10:03:32.961Z,0.6
2023-04-22T10:09:56.007Z,0.9
2023-04-22T10:16:15.962Z,0.9
2023-04-22T10:22:39.125Z,4.6
2023-04-22T10:28:58.920Z,4.6
2023-04-22T10:35:21.921Z,1.5
2023-04-22T10:41:41.904Z,1.5
2023-04-22T10:48:05.028Z,0.8
2023-04-22T10:54:24.893Z,0.8
2023-04-22T11:00:53.492Z,2.4
2023-04-22T11:07:07.981Z,2.4
2023-04-22T11:13:30.901Z,1.5
2023-04-22T11:19:50.958Z,1.5
2023-04-22T11:26:13.921Z,5.2
2023-04-22T11:32:33.922Z,5.2
2023-04-22T11:38:56.929Z,0.2
2023-04-22T11:45:16.930Z,0.2
2023-04-22T11:51:39.952Z,1.2
2023-04-22T11:57:59.895Z,1.2
2023-04-22T12:04:23.075Z,0.4
2023-04-22T12:10:42.969Z,0.4
2023-04-22T12:17:05.965Z,1.2
2023-04-22T12:23:25.958Z,1.2
2023-04-22T12:29:48.885Z,1.4
2023-04-22T12:36:08.951Z,1.4
2023-04-22T12:42:31.931Z,1.2
2023-04-22T12:48:51.909Z,1.2
2023-04-22T12:55:14.927Z,1.3
2023-04-22T13:01:35.930Z,1.3
2023-04-22T13:08:06.313Z,0.4
2023-04-22T13:14:17.896Z,0.4
2023-04-22T13:20:40.966Z,2.4
2023-04-22T13:27:00.922Z,2.4
2023-04-22T13:33:23.889Z,1.6
2023-04-22T13:39:43.948Z,1.6
2023-04-22T13:46:06.899Z,4.5
2023-04-22T13:52:26.946Z,4.5
2023-04-22T13:58:50.102Z,0.9
2023-04-22T14:05:09.882Z,0.9
2023-04-22T14:11:32.927Z,1.8
2023-04-22T14:17:53.014Z,1.8
2023-04-22T14:24:15.910Z,0.4
2023-04-22T14:30:35.938Z,0.4
2023-04-22T14:36:58.922Z,1.2
2023-04-22T14:43:18.952Z,1.2
2023-04-22T15:00:23.621Z,1.1
2023-04-22T15:06:43.935Z,1.1
2023-04-22T15:13:06.892Z,8.4
2023-04-22T15:19:26.955Z,8.4
2023-04-22T15:25:49.897Z,8.4
2023-04-22T15:32:09.903Z,8.4
2023-04-22T15:38:32.924Z,0
2023-04-22T15:44:52.898Z,0
2023-04-22T15:51:15.932Z,9.1
2023-04-22T15:57:35.931Z,9.1
2023-04-22T16:03:59.104Z,1
2023-04-22T16:10:18.942Z,1
2023-04-22T16:16:41.909Z,1.6
2023-04-22T16:23:01.928Z,1.6
2023-04-22T16:29:24.888Z,1.8
2023-04-22T16:35:44.940Z,1.8
2023-04-22T16:42:07.952Z,0.6
2023-04-22T16:48:27.902Z,0.6
2023-04-22T16:54:50.954Z,0.7
2023-04-22T17:01:10.903Z,0.7
2023-04-22T17:07:33.883Z,0.7
2023-04-22T17:13:53.979Z,0.7
2023-04-22T17:20:16.888Z,1.9
2023-04-22T17:26:36.932Z,1.9
2023-04-22T17:32:59.939Z,2.5
2023-04-22T17:39:19.957Z,2.5
2023-04-22T17:45:42.954Z,2.1
2023-04-22T17:52:02.919Z,2.1
2023-04-22T17:58:25.911Z,1.5
2023-04-22T18:04:45.920Z,1.5
2023-04-22T18:11:08.962Z,1.4
2023-04-22T18:17:28.945Z,1.4
2023-04-22T18:23:51.901Z,21.1
2023-04-22T18:30:11.918Z,21.1
2023-04-22T18:36:34.896Z,1.7
2023-04-22T18:42:54.891Z,1.7
2023-04-22T18:49:17.952Z,1.8
2023-04-22T18:55:37.896Z,1.8
2023-04-22T19:02:00.897Z,1.6
2023-04-22T19:08:20.948Z,1.6
2023-04-22T19:14:44.089Z,13.6
2023-04-22T19:21:03.939Z,13.6
2023-04-22T19:27:26.932Z,2
2023-04-22T19:33:46.874Z,2
2023-04-22T19:40:09.977Z,4.5
2023-04-22T19:46:29.910Z,4.5
2023-04-22T19:52:52.915Z,0.9
2023-04-22T19:59:12.899Z,0.9
2023-04-22T20:05:36.197Z,2.1
2023-04-22T20:11:55.964Z,2.1
2023-04-22T20:18:18.896Z,4.4
2023-04-22T20:24:38.930Z,4.4
2023-04-22T20:31:01.933Z,2.3
2023-04-22T20:46:32.868Z,1.7
2023-04-22T20:52:52.889Z,1.7
2023-04-22T20:59:15.919Z,5.2
2023-04-22T21:05:35.967Z,5.2
2023-04-22T21:11:58.901Z,5.2
2023-04-22T21:18:18.907Z,5.2
2023-04-22T21:24:42.081Z,4.4
2023-04-22T21:31:01.898Z,4.4
2023-04-22T21:37:24.910Z,6.5
2023-04-22T21:43:44.928Z,6.5
2023-04-22T21:50:07.899Z,6.9
2023-04-22T21:56:27.926Z,6.9
2023-04-22T22:22:02.954Z,37.7
2023-04-22T22:28:22.934Z,37.7
2023-04-22T22:34:45.927Z,37.7
2023-04-22T22:41:05.935Z,37.7
2023-04-22T22:47:28.928Z,13.3
2023-04-22T22:53:48.976Z,13.3
2023-04-22T23:00:12.054Z,32.2
2023-04-22T23:06:31.966Z,32.2
2023-04-22T23:12:54.985Z,19.6
2023-04-22T23:19:14.961Z,19.6
2023-04-22T23:25:38.020Z,20.2
2023-04-22T23:31:57.949Z,20.2
2023-04-22T23:38:20.997Z,11.1
2023-04-22T23:44:41.135Z,11.1
2023-04-22T23:51:04.001Z,12.2
2023-04-22T23:57:23.985Z,12.2
